sensor_id;sensor_type;location;lat;lon;timestamp;temperature;humidity
7598;DHT22;3840;59.32098800;18.06423600;2023-04-15T00:01:19;2.70;99.90
7598;DHT22;3840;59.32098800;18.06423600;2023-04-15T00:03:45;2.70;99.90
7598;DHT22;3840;59.32098800;18.06423600;2023-04-15T00:06:12;2.60;99.90
7598;DHT22;3840;59.32098800;18.06423600;2023-04-15T00:08:38;2.70;99.90
7598;DHT22;3840;59.32098800;18.06423600;2023-04-15T00:11:04;2.70;99.90
7598;DHT22;3840;59.32098800;18.06423600;2023-04-15T00:13:33;2.70;99.90
7598;DHT22;3840;59.32098800;18.06423600;2023-04-15T00:16:00;2.70;99.90
7598;DHT22;3840;59.32098800;18.06423600;2023-04-15T00:18:26;2.70;99.90
7598;DHT22;3840;59.32098800;18.06423600;2023-04-15T00:20:51;2.70;99.90
7598;DHT22;3840;59.32098800;18.06423600;2023-04-15T00:23:17;2.70;99.90
7598;DHT22;3840;59.32098800;18.06423600;2023-04-15T00:25:43;2.90;99.90
7598;DHT22;3840;59.32098800;18.06423600;2023-04-15T00:28:09;2.60;99.90
7598;DHT22;3840;59.32098800;18.06423600;2023-04-15T00:30:35;2.80;99.90
7598;DHT22;3840;59.32098800;18.06423600;2023-04-15T00:33:00;2.60;99.90
7598;DHT22;3840;59.32098800;18.06423600;2023-04-15T00:35:29;2.60;99.90
7598;DHT22;3840;59.32098800;18.06423600;2023-04-15T00:37:57;2.60;99.90
7598;DHT22;3840;59.32098800;18.06423600;2023-04-15T00:40:23;2.60;99.90
7598;DHT22;3840;59.32098800;18.06423600;2023-04-15T00:42:50;2.60;99.90
7598;DHT22;3840;59.32098800;18.06423600;2023-04-15T00:45:16;2.60;99.90
7598;DHT22;3840;59.32098800;18.06423600;2023-04-15T00:47:42;2.60;99.90
7598;DHT22;3840;59.32098800;18.06423600;2023-04-15T00:50:09;2.60;99.90
7598;DHT22;3840;59.32098800;18.06423600;2023-04-15T00:52:36;2.60;99.90
7598;DHT22;3840;59.32098800;18.06423600;2023-04-15T00:55:02;2.60;99.90
7598;DHT22;3840;59.32098800;18.06423600;2023-04-15T00:57:29;2.60;99.90
7598;DHT22;3840;59.32098800;18.06423600;2023-04-15T00:59:55;2.60;99.90
7598;DHT22;3840;59.32098800;18.06423600;2023-04-15T01:02:22;2.60;99.90
7598;DHT22;3840;59.32098800;18.06423600;2023-04-15T01:04:48;2.70;99.90
7598;DHT22;3840;59.32098800;18.06423600;2023-04-15T01:07:14;2.60;99.90
7598;DHT22;3840;59.32098800;18.06423600;2023-04-15T01:09:40;2.60;99.90
7598;DHT22;3840;59.32098800;18.06423600;2023-04-15T01:12:06;2.60;99.90
7598;DHT22;3840;59.32098800;18.06423600;2023-04-15T01:14:35;2.60;99.90
7598;DHT22;3840;59.32098800;18.06423600;2023-04-15T01:17:01;2.60;99.90
7598;DHT22;3840;59.32098800;18.06423600;2023-04-15T01:19:27;2.60;99.90
7598;DHT22;3840;59.32098800;18.06423600;2023-04-15T01:21:55;2.60;99.90
7598;DHT22;3840;59.32098800;18.06423600;2023-04-15T01:24:22;2.60;99.90
7598;DHT22;3840;59.32098800;18.06423600;2023-04-15T01:26:49;2.60;99.90
7598;DHT22;3840;59.32098800;18.06423600;2023-04-15T01:29:15;2.60;99.90
7598;DHT22;3840;59.32098800;18.06423600;2023-04-15T01:31:47;2.70;99.90
7598;DHT22;3840;59.32098800;18.06423600;2023-04-15T01:34:14;2.70;99.90
7598;DHT22;3840;59.32098800;18.06423600;2023-04-15T01:36:39;2.70;99.90
7598;DHT22;3840;59.32098800;18.06423600;2023-04-15T01:39:05;2.70;99.90
7598;DHT22;3840;59.32098800;18.06423600;2023-04-15T01:41:31;2.70;99.90
7598;DHT22;3840;59.32098800;18.06423600;2023-04-15T01:43:57;2.80;99.90
7598;DHT22;3840;59.32098800;18.06423600;2023-04-15T01:46:23;2.80;99.90
7598;DHT22;3840;59.32098800;18.06423600;2023-04-15T01:48:48;2.90;99.90
7598;DHT22;3840;59.32098800;18.06423600;2023-04-15T01:51:14;2.90;99.90
7598;DHT22;3840;59.32098800;18.06423600;2023-04-15T01:53:41;2.90;99.90
7598;DHT22;3840;59.32098800;18.06423600;2023-04-15T01:56:06;3.00;99.90
7598;DHT22;3840;59.32098800;18.06423600;2023-04-15T01:58:32;3.00;99.90
7598;DHT22;3840;59.32098800;18.06423600;2023-04-15T02:00:58;3.00;99.90
7598;DHT22;3840;59.32098800;18.06423600;2023-04-15T02:03:24;3.10;99.90
7598;DHT22;3840;59.32098800;18.06423600;2023-04-15T02:05:50;3.10;99.90
7598;DHT22;3840;59.32098800;18.06423600;2023-04-15T02:08:16;3.10;99.90
7598;DHT22;3840;59.32098800;18.06423600;2023-04-15T02:10:42;3.10;99.90
7598;DHT22;3840;59.32098800;18.06423600;2023-04-15T02:13:08;3.20;99.90
7598;DHT22;3840;59.32098800;18.06423600;2023-04-15T02:15:34;3.10;99.90
7598;DHT22;3840;59.32098800;18.06423600;2023-04-15T02:18:00;3.10;99.90
7598;DHT22;3840;59.32098800;18.06423600;2023-04-15T02:20:26;3.20;99.90
7598;DHT22;3840;59.32098800;18.06423600;2023-04-15T02:22:52;3.20;99.90
7598;DHT22;3840;59.32098800;18.06423600;2023-04-15T02:25:17;3.20;99.90
7598;DHT22;3840;59.32098800;18.06423600;2023-04-15T02:27:44;3.20;99.90
7598;DHT22;3840;59.32098800;18.06423600;2023-04-15T02:30:11;3.20;99.90
7598;DHT22;3840;59.32098800;18.06423600;2023-04-15T02:32:38;3.20;99.90
7598;DHT22;3840;59.32098800;18.06423600;2023-04-15T02:35:06;3.20;99.90
7598;DHT22;3840;59.32098800;18.06423600;2023-04-15T02:37:32;3.20;99.90
7598;DHT22;3840;59.32098800;18.06423600;2023-04-15T02:40:01;3.20;99.90
7598;DHT22;3840;59.32098800;18.06423600;2023-04-15T02:42:28;3.20;99.90
7598;DHT22;3840;59.32098800;18.06423600;2023-04-15T02:44:55;3.20;99.90
7598;DHT22;3840;59.32098800;18.06423600;2023-04-15T02:47:21;3.20;99.90
7598;DHT22;3840;59.32098800;18.06423600;2023-04-15T02:49:46;3.30;99.90
7598;DHT22;3840;59.32098800;18.06423600;2023-04-15T02:52:12;3.30;99.90
7598;DHT22;3840;59.32098800;18.06423600;2023-04-15T02:54:38;3.30;99.90
7598;DHT22;3840;59.32098800;18.06423600;2023-04-15T02:57:04;3.30;99.90
7598;DHT22;3840;59.32098800;18.06423600;2023-04-15T02:59:31;3.30;99.90
7598;DHT22;3840;59.32098800;18.06423600;2023-04-15T03:01:57;3.30;99.90
7598;DHT22;3840;59.32098800;18.06423600;2023-04-15T03:04:25;3.40;99.90
7598;DHT22;3840;59.32098800;18.06423600;2023-04-15T03:06:52;3.40;99.90
7598;DHT22;3840;59.32098800;18.06423600;2023-04-15T03:09:17;3.40;99.90
7598;DHT22;3840;59.32098800;18.06423600;2023-04-15T03:11:43;3.40;99.90
7598;DHT22;3840;59.32098800;18.06423600;2023-04-15T03:14:09;3.40;99.90
7598;DHT22;3840;59.32098800;18.06423600;2023-04-15T03:16:34;3.40;99.90
7598;DHT22;3840;59.32098800;18.06423600;2023-04-15T03:19:00;3.40;99.90
7598;DHT22;3840;59.32098800;18.06423600;2023-04-15T03:21:26;3.40;99.90
7598;DHT22;3840;59.32098800;18.06423600;2023-04-15T03:23:52;3.40;99.90
7598;DHT22;3840;59.32098800;18.06423600;2023-04-15T03:26:30;3.40;99.90
7598;DHT22;3840;59.32098800;18.06423600;2023-04-15T03:28:57;3.40;99.90
7598;DHT22;3840;59.32098800;18.06423600;2023-04-15T03:31:23;3.50;99.90
7598;DHT22;3840;59.32098800;18.06423600;2023-04-15T03:33:49;3.50;99.90
7598;DHT22;3840;59.32098800;18.06423600;2023-04-15T03:36:15;3.50;99.90
7598;DHT22;3840;59.32098800;18.06423600;2023-04-15T03:38:41;3.50;99.90
7598;DHT22;3840;59.32098800;18.06423600;2023-04-15T03:41:07;3.50;99.90
7598;DHT22;3840;59.32098800;18.06423600;2023-04-15T03:43:33;3.50;99.90
7598;DHT22;3840;59.32098800;18.06423600;2023-04-15T03:46:00;3.50;99.90
7598;DHT22;3840;59.32098800;18.06423600;2023-04-15T03:48:25;3.60;99.90
7598;DHT22;3840;59.32098800;18.06423600;2023-04-15T03:50:51;3.60;99.90
7598;DHT22;3840;59.32098800;18.06423600;2023-04-15T03:53:18;3.60;99.90
7598;DHT22;3840;59.32098800;18.06423600;2023-04-15T03:55:43;3.70;99.90
7598;DHT22;3840;59.32098800;18.06423600;2023-04-15T03:58:09;3.80;99.90
7598;DHT22;3840;59.32098800;18.06423600;2023-04-15T04:00:37;4.00;99.90
7598;DHT22;3840;59.32098800;18.06423600;2023-04-15T04:03:03;4.30;99.90
7598;DHT22;3840;59.32098800;18.06423600;2023-04-15T04:05:29;4.60;99.90
7598;DHT22;3840;59.32098800;18.06423600;2023-04-15T04:07:55;4.80;99.90
7598;DHT22;3840;59.32098800;18.06423600;2023-04-15T04:10:21;5.10;99.90
7598;DHT22;3840;59.32098800;18.06423600;2023-04-15T04:12:47;5.30;99.90
7598;DHT22;3840;59.32098800;18.06423600;2023-04-15T04:15:12;5.50;99.90
7598;DHT22;3840;59.32098800;18.06423600;2023-04-15T04:17:38;5.70;99.90
7598;DHT22;3840;59.32098800;18.06423600;2023-04-15T04:20:04;6.00;99.90
7598;DHT22;3840;59.32098800;18.06423600;2023-04-15T04:22:30;6.30;99.90
7598;DHT22;3840;59.32098800;18.06423600;2023-04-15T04:24:56;6.20;99.90
7598;DHT22;3840;59.32098800;18.06423600;2023-04-15T04:27:24;6.40;99.90
7598;DHT22;3840;59.32098800;18.06423600;2023-04-15T04:29:50;6.00;99.90
7598;DHT22;3840;59.32098800;18.06423600;2023-04-15T04:32:15;5.60;99.90
7598;DHT22;3840;59.32098800;18.06423600;2023-04-15T04:34:41;5.00;99.90
7598;DHT22;3840;59.32098800;18.06423600;2023-04-15T04:37:08;4.90;99.90
7598;DHT22;3840;59.32098800;18.06423600;2023-04-15T04:39:35;4.70;99.90
7598;DHT22;3840;59.32098800;18.06423600;2023-04-15T04:42:01;4.70;99.90
7598;DHT22;3840;59.32098800;18.06423600;2023-04-15T04:44:27;4.60;99.90
7598;DHT22;3840;59.32098800;18.06423600;2023-04-15T04:46:53;4.50;99.90
7598;DHT22;3840;59.32098800;18.06423600;2023-04-15T04:49:18;4.50;99.90
7598;DHT22;3840;59.32098800;18.06423600;2023-04-15T04:51:44;4.50;99.90
7598;DHT22;3840;59.32098800;18.06423600;2023-04-15T04:54:11;4.40;99.90
7598;DHT22;3840;59.32098800;18.06423600;2023-04-15T04:56:37;4.40;99.90
7598;DHT22;3840;59.32098800;18.06423600;2023-04-15T04:59:04;4.40;99.90
7598;DHT22;3840;59.32098800;18.06423600;2023-04-15T05:01:29;4.40;99.90
7598;DHT22;3840;59.32098800;18.06423600;2023-04-15T05:03:55;4.30;99.90
7598;DHT22;3840;59.32098800;18.06423600;2023-04-15T05:06:21;4.40;99.90
7598;DHT22;3840;59.32098800;18.06423600;2023-04-15T05:08:47;4.40;99.90
7598;DHT22;3840;59.32098800;18.06423600;2023-04-15T05:11:13;4.30;99.90
7598;DHT22;3840;59.32098800;18.06423600;2023-04-15T05:13:38;4.40;99.90
7598;DHT22;3840;59.32098800;18.06423600;2023-04-15T05:16:05;4.40;99.90
7598;DHT22;3840;59.32098800;18.06423600;2023-04-15T05:18:30;4.50;99.90
7598;DHT22;3840;59.32098800;18.06423600;2023-04-15T05:20:56;4.50;99.90
7598;DHT22;3840;59.32098800;18.06423600;2023-04-15T05:23:23;4.50;99.90
7598;DHT22;3840;59.32098800;18.06423600;2023-04-15T05:25:49;4.60;99.90
7598;DHT22;3840;59.32098800;18.06423600;2023-04-15T05:28:14;4.50;99.90
7598;DHT22;3840;59.32098800;18.06423600;2023-04-15T05:30:41;4.50;99.90
7598;DHT22;3840;59.32098800;18.06423600;2023-04-15T05:33:07;4.50;99.90
7598;DHT22;3840;59.32098800;18.06423600;2023-04-15T05:35:33;4.50;99.90
7598;DHT22;3840;59.32098800;18.06423600;2023-04-15T05:37:59;4.60;99.90
7598;DHT22;3840;59.32098800;18.06423600;2023-04-15T05:40:25;4.60;99.90
7598;DHT22;3840;59.32098800;18.06423600;2023-04-15T05:42:51;4.60;99.90
7598;DHT22;3840;59.32098800;18.06423600;2023-04-15T05:45:16;4.60;99.90
7598;DHT22;3840;59.32098800;18.06423600;2023-04-15T05:47:42;4.60;99.90
7598;DHT22;3840;59.32098800;18.06423600;2023-04-15T05:50:08;4.60;99.90
7598;DHT22;3840;59.32098800;18.06423600;2023-04-15T05:52:34;4.60;99.90
7598;DHT22;3840;59.32098800;18.06423600;2023-04-15T05:54:59;4.70;99.90
7598;DHT22;3840;59.32098800;18.06423600;2023-04-15T05:57:25;4.80;99.90
7598;DHT22;3840;59.32098800;18.06423600;2023-04-15T05:59:51;4.80;99.90
7598;DHT22;3840;59.32098800;18.06423600;2023-04-15T06:02:17;4.80;99.90
7598;DHT22;3840;59.32098800;18.06423600;2023-04-15T06:04:43;4.90;99.90
7598;DHT22;3840;59.32098800;18.06423600;2023-04-15T06:07:09;5.00;99.90
7598;DHT22;3840;59.32098800;18.06423600;2023-04-15T06:09:35;5.00;99.90
7598;DHT22;3840;59.32098800;18.06423600;2023-04-15T06:12:01;5.00;99.90
7598;DHT22;3840;59.32098800;18.06423600;2023-04-15T06:14:27;5.00;99.90
7598;DHT22;3840;59.32098800;18.06423600;2023-04-15T06:16:53;5.10;99.90
7598;DHT22;3840;59.32098800;18.06423600;2023-04-15T06:19:18;5.10;99.90
7598;DHT22;3840;59.32098800;18.06423600;2023-04-15T06:21:45;5.10;99.90
7598;DHT22;3840;59.32098800;18.06423600;2023-04-15T06:24:11;5.10;99.90
7598;DHT22;3840;59.32098800;18.06423600;2023-04-15T06:26:37;5.20;99.90
7598;DHT22;3840;59.32098800;18.06423600;2023-04-15T06:29:02;5.20;99.90
7598;DHT22;3840;59.32098800;18.06423600;2023-04-15T06:31:29;5.30;99.90
7598;DHT22;3840;59.32098800;18.06423600;2023-04-15T06:33:55;5.40;99.90
7598;DHT22;3840;59.32098800;18.06423600;2023-04-15T06:36:21;5.50;99.90
7598;DHT22;3840;59.32098800;18.06423600;2023-04-15T06:38:46;5.50;99.90
7598;DHT22;3840;59.32098800;18.06423600;2023-04-15T06:41:12;5.50;99.90
7598;DHT22;3840;59.32098800;18.06423600;2023-04-15T06:43:38;5.50;99.90
7598;DHT22;3840;59.32098800;18.06423600;2023-04-15T06:46:04;5.50;99.90
7598;DHT22;3840;59.32098800;18.06423600;2023-04-15T06:48:30;5.60;99.90
7598;DHT22;3840;59.32098800;18.06423600;2023-04-15T06:50:55;5.60;99.90
7598;DHT22;3840;59.32098800;18.06423600;2023-04-15T06:53:24;5.60;99.90
7598;DHT22;3840;59.32098800;18.06423600;2023-04-15T06:55:51;5.60;99.90
7598;DHT22;3840;59.32098800;18.06423600;2023-04-15T06:58:17;5.70;99.90
7598;DHT22;3840;59.32098800;18.06423600;2023-04-15T07:00:42;5.70;99.90
7598;DHT22;3840;59.32098800;18.06423600;2023-04-15T07:03:10;5.60;99.90
7598;DHT22;3840;59.32098800;18.06423600;2023-04-15T07:05:37;5.60;99.90
7598;DHT22;3840;59.32098800;18.06423600;2023-04-15T07:08:04;5.70;99.90
7598;DHT22;3840;59.32098800;18.06423600;2023-04-15T07:10:29;5.80;99.90
7598;DHT22;3840;59.32098800;18.06423600;2023-04-15T07:12:55;5.80;99.90
7598;DHT22;3840;59.32098800;18.06423600;2023-04-15T07:15:21;5.80;99.90
7598;DHT22;3840;59.32098800;18.06423600;2023-04-15T07:17:48;5.80;99.90
7598;DHT22;3840;59.32098800;18.06423600;2023-04-15T07:20:13;5.80;99.90
7598;DHT22;3840;59.32098800;18.06423600;2023-04-15T07:22:39;5.80;99.90
7598;DHT22;3840;59.32098800;18.06423600;2023-04-15T07:25:07;5.80;99.90
7598;DHT22;3840;59.32098800;18.06423600;2023-04-15T07:27:33;5.90;99.90
7598;DHT22;3840;59.32098800;18.06423600;2023-04-15T07:29:59;5.90;99.90
7598;DHT22;3840;59.32098800;18.06423600;2023-04-15T07:32:25;5.90;99.90
7598;DHT22;3840;59.32098800;18.06423600;2023-04-15T07:34:50;6.00;99.90
7598;DHT22;3840;59.32098800;18.06423600;2023-04-15T07:37:16;6.10;99.90
7598;DHT22;3840;59.32098800;18.06423600;2023-04-15T07:39:44;6.10;99.90
7598;DHT22;3840;59.32098800;18.06423600;2023-04-15T07:42:09;6.10;99.90
7598;DHT22;3840;59.32098800;18.06423600;2023-04-15T07:44:35;6.10;99.90
7598;DHT22;3840;59.32098800;18.06423600;2023-04-15T07:47:02;6.10;99.90
7598;DHT22;3840;59.32098800;18.06423600;2023-04-15T07:49:28;6.20;99.90
7598;DHT22;3840;59.32098800;18.06423600;2023-04-15T07:51:54;6.20;99.90
7598;DHT22;3840;59.32098800;18.06423600;2023-04-15T07:54:22;6.20;99.90
7598;DHT22;3840;59.32098800;18.06423600;2023-04-15T07:56:47;6.20;99.90
7598;DHT22;3840;59.32098800;18.06423600;2023-04-15T07:59:13;6.30;99.90
7598;DHT22;3840;59.32098800;18.06423600;2023-04-15T08:01:42;6.30;99.90
7598;DHT22;3840;59.32098800;18.06423600;2023-04-15T08:04:08;6.40;99.90
7598;DHT22;3840;59.32098800;18.06423600;2023-04-15T08:06:34;6.40;99.90
7598;DHT22;3840;59.32098800;18.06423600;2023-04-15T08:09:01;6.30;99.90
7598;DHT22;3840;59.32098800;18.06423600;2023-04-15T08:11:27;6.30;99.90
7598;DHT22;3840;59.32098800;18.06423600;2023-04-15T08:13:52;6.30;99.90
7598;DHT22;3840;59.32098800;18.06423600;2023-04-15T08:16:20;6.40;99.90
7598;DHT22;3840;59.32098800;18.06423600;2023-04-15T08:18:47;6.40;99.90
7598;DHT22;3840;59.32098800;18.06423600;2023-04-15T08:21:14;6.40;99.90
7598;DHT22;3840;59.32098800;18.06423600;2023-04-15T08:23:40;6.40;99.90
7598;DHT22;3840;59.32098800;18.06423600;2023-04-15T08:26:07;6.50;99.90
7598;DHT22;3840;59.32098800;18.06423600;2023-04-15T08:28:33;6.60;99.90
7598;DHT22;3840;59.32098800;18.06423600;2023-04-15T08:30:59;6.70;99.90
7598;DHT22;3840;59.32098800;18.06423600;2023-04-15T08:33:25;6.60;99.90
7598;DHT22;3840;59.32098800;18.06423600;2023-04-15T08:35:50;6.60;99.90
7598;DHT22;3840;59.32098800;18.06423600;2023-04-15T08:38:16;6.70;99.90
7598;DHT22;3840;59.32098800;18.06423600;2023-04-15T08:40:46;6.70;99.90
7598;DHT22;3840;59.32098800;18.06423600;2023-04-15T08:43:20;6.80;99.90
7598;DHT22;3840;59.32098800;18.06423600;2023-04-15T08:45:47;6.80;99.90
7598;DHT22;3840;59.32098800;18.06423600;2023-04-15T08:48:16;6.80;99.90
7598;DHT22;3840;59.32098800;18.06423600;2023-04-15T08:50:43;6.80;99.90
7598;DHT22;3840;59.32098800;18.06423600;2023-04-15T08:53:10;6.90;99.90
7598;DHT22;3840;59.32098800;18.06423600;2023-04-15T08:55:42;6.80;99.90
7598;DHT22;3840;59.32098800;18.06423600;2023-04-15T08:58:12;6.80;99.90
7598;DHT22;3840;59.32098800;18.06423600;2023-04-15T09:00:41;6.90;99.90
7598;DHT22;3840;59.32098800;18.06423600;2023-04-15T09:03:09;6.90;99.90
7598;DHT22;3840;59.32098800;18.06423600;2023-04-15T09:05:36;7.00;99.90
7598;DHT22;3840;59.32098800;18.06423600;2023-04-15T09:08:03;7.00;99.90
7598;DHT22;3840;59.32098800;18.06423600;2023-04-15T09:10:30;7.10;99.90
7598;DHT22;3840;59.32098800;18.06423600;2023-04-15T09:12:57;7.00;99.90
7598;DHT22;3840;59.32098800;18.06423600;2023-04-15T09:15:25;7.00;99.90
7598;DHT22;3840;59.32098800;18.06423600;2023-04-15T09:17:54;7.00;99.90
7598;DHT22;3840;59.32098800;18.06423600;2023-04-15T09:20:21;7.10;99.90
7598;DHT22;3840;59.32098800;18.06423600;2023-04-15T09:22:48;7.20;99.90
7598;DHT22;3840;59.32098800;18.06423600;2023-04-15T09:27:55;7.30;99.90
7598;DHT22;3840;59.32098800;18.06423600;2023-04-15T09:30:21;7.30;99.90
7598;DHT22;3840;59.32098800;18.06423600;2023-04-15T09:32:55;7.20;99.90
7598;DHT22;3840;59.32098800;18.06423600;2023-04-15T09:35:22;7.30;99.90
7598;DHT22;3840;59.32098800;18.06423600;2023-04-15T09:37:49;7.30;99.90
7598;DHT22;3840;59.32098800;18.06423600;2023-04-15T09:40:33;7.30;99.90
7598;DHT22;3840;59.32098800;18.06423600;2023-04-15T09:43:01;7.40;99.90
7598;DHT22;3840;59.32098800;18.06423600;2023-04-15T09:45:28;7.30;99.90
7598;DHT22;3840;59.32098800;18.06423600;2023-04-15T09:47:54;7.30;99.90
7598;DHT22;3840;59.32098800;18.06423600;2023-04-15T09:50:21;7.20;99.90
7598;DHT22;3840;59.32098800;18.06423600;2023-04-15T09:53:05;7.30;99.90
7598;DHT22;3840;59.32098800;18.06423600;2023-04-15T09:55:33;7.20;99.90
7598;DHT22;3840;59.32098800;18.06423600;2023-04-15T09:58:00;7.10;99.90
7598;DHT22;3840;59.32098800;18.06423600;2023-04-15T10:00:26;7.10;99.90
7598;DHT22;3840;59.32098800;18.06423600;2023-04-15T10:02:54;7.10;99.90
7598;DHT22;3840;59.32098800;18.06423600;2023-04-15T10:05:20;7.20;99.90
7598;DHT22;3840;59.32098800;18.06423600;2023-04-15T10:07:48;7.20;99.90
7598;DHT22;3840;59.32098800;18.06423600;2023-04-15T10:10:14;7.20;99.90
7598;DHT22;3840;59.32098800;18.06423600;2023-04-15T10:12:40;7.10;99.90
7598;DHT22;3840;59.32098800;18.06423600;2023-04-15T10:15:14;7.30;99.90
7598;DHT22;3840;59.32098800;18.06423600;2023-04-15T10:17:43;7.30;99.90
7598;DHT22;3840;59.32098800;18.06423600;2023-04-15T10:20:09;7.20;99.90
7598;DHT22;3840;59.32098800;18.06423600;2023-04-15T10:22:37;7.20;99.90
7598;DHT22;3840;59.32098800;18.06423600;2023-04-15T10:25:04;7.10;99.90
7598;DHT22;3840;59.32098800;18.06423600;2023-04-15T10:27:30;7.20;99.90
7598;DHT22;3840;59.32098800;18.06423600;2023-04-15T10:29:59;7.20;99.90
7598;DHT22;3840;59.32098800;18.06423600;2023-04-15T10:32:28;7.20;99.90
7598;DHT22;3840;59.32098800;18.06423600;2023-04-15T10:34:55;7.10;99.90
7598;DHT22;3840;59.32098800;18.06423600;2023-04-15T10:37:44;7.20;99.90
7598;DHT22;3840;59.32098800;18.06423600;2023-04-15T10:40:27;7.10;99.90
7598;DHT22;3840;59.32098800;18.06423600;2023-04-15T10:42:57;7.10;99.90
7598;DHT22;3840;59.32098800;18.06423600;2023-04-15T10:45:34;7.20;99.90
7598;DHT22;3840;59.32098800;18.06423600;2023-04-15T10:48:02;7.30;99.90
7598;DHT22;3840;59.32098800;18.06423600;2023-04-15T10:50:30;7.30;99.90
7598;DHT22;3840;59.32098800;18.06423600;2023-04-15T10:52:56;7.20;99.90
7598;DHT22;3840;59.32098800;18.06423600;2023-04-15T10:55:24;7.30;99.90
7598;DHT22;3840;59.32098800;18.06423600;2023-04-15T10:57:53;7.30;99.90
7598;DHT22;3840;59.32098800;18.06423600;2023-04-15T11:00:20;7.30;99.90
7598;DHT22;3840;59.32098800;18.06423600;2023-04-15T11:02:53;7.20;99.90
7598;DHT22;3840;59.32098800;18.06423600;2023-04-15T11:06:06;7.20;99.90
7598;DHT22;3840;59.32098800;18.06423600;2023-04-15T11:08:11;7.20;99.90
7598;DHT22;3840;59.32098800;18.06423600;2023-04-15T11:13:05;7.20;99.90
7598;DHT22;3840;59.32098800;18.06423600;2023-04-15T11:15:47;7.20;99.90
7598;DHT22;3840;59.32098800;18.06423600;2023-04-15T11:18:28;7.30;99.90
7598;DHT22;3840;59.32098800;18.06423600;2023-04-15T11:21:02;7.30;99.90
7598;DHT22;3840;59.32098800;18.06423600;2023-04-15T11:23:39;7.40;99.90
7598;DHT22;3840;59.32098800;18.06423600;2023-04-15T11:26:07;7.40;99.90
7598;DHT22;3840;59.32098800;18.06423600;2023-04-15T11:28:40;7.40;99.90
7598;DHT22;3840;59.32098800;18.06423600;2023-04-15T11:31:08;7.30;99.90
7598;DHT22;3840;59.32098800;18.06423600;2023-04-15T11:33:44;7.20;99.90
7598;DHT22;3840;59.32098800;18.06423600;2023-04-15T11:36:10;7.20;99.90
7598;DHT22;3840;59.32098800;18.06423600;2023-04-15T11:38:36;7.20;99.90
7598;DHT22;3840;59.32098800;18.06423600;2023-04-15T11:41:02;7.20;99.90
7598;DHT22;3840;59.32098800;18.06423600;2023-04-15T11:43:31;7.20;99.90
7598;DHT22;3840;59.32098800;18.06423600;2023-04-15T11:45:58;7.20;99.90
7598;DHT22;3840;59.32098800;18.06423600;2023-04-15T11:48:31;7.20;99.90
7598;DHT22;3840;59.32098800;18.06423600;2023-04-15T11:51:03;7.20;99.90
7598;DHT22;3840;59.32098800;18.06423600;2023-04-15T11:53:55;7.30;99.90
7598;DHT22;3840;59.32098800;18.06423600;2023-04-15T11:56:23;7.30;99.90
7598;DHT22;3840;59.32098800;18.06423600;2023-04-15T11:58:57;7.30;99.90
7598;DHT22;3840;59.32098800;18.06423600;2023-04-15T12:01:34;7.40;99.90
7598;DHT22;3840;59.32098800;18.06423600;2023-04-15T12:04:00;7.30;99.90
7598;DHT22;3840;59.32098800;18.06423600;2023-04-15T12:06:32;7.30;99.90
7598;DHT22;3840;59.32098800;18.06423600;2023-04-15T12:09:06;7.40;99.90
7598;DHT22;3840;59.32098800;18.06423600;2023-04-15T12:11:36;7.30;99.90
7598;DHT22;3840;59.32098800;18.06423600;2023-04-15T12:14:08;7.20;99.90
7598;DHT22;3840;59.32098800;18.06423600;2023-04-15T12:16:40;7.20;99.90
7598;DHT22;3840;59.32098800;18.06423600;2023-04-15T12:19:12;7.20;99.90
7598;DHT22;3840;59.32098800;18.06423600;2023-04-15T12:21:42;7.20;99.90
7598;DHT22;3840;59.32098800;18.06423600;2023-04-15T12:24:10;7.20;99.90
7598;DHT22;3840;59.32098800;18.06423600;2023-04-15T12:29:14;7.10;99.90
7598;DHT22;3840;59.32098800;18.06423600;2023-04-15T12:34:31;7.10;99.90
7598;DHT22;3840;59.32098800;18.06423600;2023-04-15T12:36:58;7.10;99.90
7598;DHT22;3840;59.32098800;18.06423600;2023-04-15T12:39:25;7.10;99.90
7598;DHT22;3840;59.32098800;18.06423600;2023-04-15T12:41:52;7.10;99.90
7598;DHT22;3840;59.32098800;18.06423600;2023-04-15T12:44:18;7.10;99.90
7598;DHT22;3840;59.32098800;18.06423600;2023-04-15T12:46:44;7.10;99.90
7598;DHT22;3840;59.32098800;18.06423600;2023-04-15T12:49:10;7.10;99.90
7598;DHT22;3840;59.32098800;18.06423600;2023-04-15T12:51:36;7.10;99.90
7598;DHT22;3840;59.32098800;18.06423600;2023-04-15T12:54:02;7.10;99.90
7598;DHT22;3840;59.32098800;18.06423600;2023-04-15T12:56:27;7.10;99.90
7598;DHT22;3840;59.32098800;18.06423600;2023-04-15T12:58:53;7.10;99.90
7598;DHT22;3840;59.32098800;18.06423600;2023-04-15T13:01:19;7.20;99.90
7598;DHT22;3840;59.32098800;18.06423600;2023-04-15T13:03:45;7.10;99.90
7598;DHT22;3840;59.32098800;18.06423600;2023-04-15T13:06:12;7.10;99.90
7598;DHT22;3840;59.32098800;18.06423600;2023-04-15T13:08:38;7.10;99.90
7598;DHT22;3840;59.32098800;18.06423600;2023-04-15T13:11:04;7.10;99.90
7598;DHT22;3840;59.32098800;18.06423600;2023-04-15T13:13:30;7.10;99.90
7598;DHT22;3840;59.32098800;18.06423600;2023-04-15T13:15:56;7.20;99.90
7598;DHT22;3840;59.32098800;18.06423600;2023-04-15T13:18:22;7.20;99.90
7598;DHT22;3840;59.32098800;18.06423600;2023-04-15T13:20:49;7.10;99.90
7598;DHT22;3840;59.32098800;18.06423600;2023-04-15T13:23:15;7.20;99.90
7598;DHT22;3840;59.32098800;18.06423600;2023-04-15T13:25:41;7.20;99.90
7598;DHT22;3840;59.32098800;18.06423600;2023-04-15T13:28:09;7.20;99.90
7598;DHT22;3840;59.32098800;18.06423600;2023-04-15T13:30:37;7.20;99.90
7598;DHT22;3840;59.32098800;18.06423600;2023-04-15T13:33:03;7.10;99.90
7598;DHT22;3840;59.32098800;18.06423600;2023-04-15T13:35:29;7.20;99.90
7598;DHT22;3840;59.32098800;18.06423600;2023-04-15T13:37:54;7.40;99.90
7598;DHT22;3840;59.32098800;18.06423600;2023-04-15T13:40:20;7.30;99.90
7598;DHT22;3840;59.32098800;18.06423600;2023-04-15T13:42:46;7.30;99.90
7598;DHT22;3840;59.32098800;18.06423600;2023-04-15T13:45:12;7.10;99.90
7598;DHT22;3840;59.32098800;18.06423600;2023-04-15T13:47:39;7.10;99.90
7598;DHT22;3840;59.32098800;18.06423600;2023-04-15T13:50:05;7.10;99.90
7598;DHT22;3840;59.32098800;18.06423600;2023-04-15T13:52:32;7.00;99.90
7598;DHT22;3840;59.32098800;18.06423600;2023-04-15T13:54:57;7.00;99.90
7598;DHT22;3840;59.32098800;18.06423600;2023-04-15T13:57:25;7.00;99.90